sensor_id;sensor_type;location;lat;lon;timestamp;P1;durP1;ratioP1;P2;durP2;ratioP2
56041;SDS011;48756;41.374;2.066;2023-02-26T00:02:09;5.03;;;2.70;;
56041;SDS011;48756;41.374;2.066;2023-02-26T00:04:35;5.95;;;3.42;;
56041;SDS011;48756;41.374;2.066;2023-02-26T00:07:04;5.90;;;3.08;;
56041;SDS011;48756;41.374;2.066;2023-02-26T00:09:30;12.55;;;4.05;;
56041;SDS011;48756;41.374;2.066;2023-02-26T00:14:22;5.03;;;3.53;;
56041;SDS011;48756;41.374;2.066;2023-02-26T00:19:48;5.25;;;3.15;;
56041;SDS011;48756;41.374;2.066;2023-02-26T00:22:14;5.45;;;3.67;;
56041;SDS011;48756;41.374;2.066;2023-02-26T00:24:39;3.65;;;2.17;;
56041;SDS011;48756;41.374;2.066;2023-02-26T00:29:31;6.25;;;2.97;;
56041;SDS011;48756;41.374;2.066;2023-02-26T00:31:57;8.13;;;4.15;;
56041;SDS011;48756;41.374;2.066;2023-02-26T00:34:23;6.07;;;4.30;;
56041;SDS011;48756;41.374;2.066;2023-02-26T00:39:35;4.43;;;3.30;;
56041;SDS011;48756;41.374;2.066;2023-02-26T00:42:02;6.88;;;5.25;;
56041;SDS011;48756;41.374;2.066;2023-02-26T00:44:28;8.93;;;4.10;;
56041;SDS011;48756;41.374;2.066;2023-02-26T00:47:00;4.95;;;3.33;;
56041;SDS011;48756;41.374;2.066;2023-02-26T00:52:05;8.90;;;4.22;;
56041;SDS011;48756;41.374;2.066;2023-02-26T00:54:38;11.10;;;4.20;;
56041;SDS011;48756;41.374;2.066;2023-02-26T00:57:04;8.87;;;5.03;;
56041;SDS011;48756;41.374;2.066;2023-02-26T00:59:30;7.47;;;3.90;;
56041;SDS011;48756;41.374;2.066;2023-02-26T01:01:56;10.23;;;4.97;;
56041;SDS011;48756;41.374;2.066;2023-02-26T01:04:22;13.93;;;5.10;;
56041;SDS011;48756;41.374;2.066;2023-02-26T01:06:49;6.18;;;4.50;;
56041;SDS011;48756;41.374;2.066;2023-02-26T01:09:33;11.88;;;4.38;;
56041;SDS011;48756;41.374;2.066;2023-02-26T01:12:10;11.07;;;3.97;;
56041;SDS011;48756;41.374;2.066;2023-02-26T01:14:41;6.00;;;4.82;;
56041;SDS011;48756;41.374;2.066;2023-02-26T01:19:49;5.63;;;3.65;;
56041;SDS011;48756;41.374;2.066;2023-02-26T01:24:55;4.18;;;2.85;;
56041;SDS011;48756;41.374;2.066;2023-02-26T01:29:52;6.47;;;3.03;;
56041;SDS011;48756;41.374;2.066;2023-02-26T01:32:21;5.30;;;2.72;;
56041;SDS011;48756;41.374;2.066;2023-02-26T01:37:48;4.68;;;3.92;;
56041;SDS011;48756;41.374;2.066;2023-02-26T01:40:25;4.28;;;3.20;;
56041;SDS011;48756;41.374;2.066;2023-02-26T01:43:16;5.75;;;3.55;;
56041;SDS011;48756;41.374;2.066;2023-02-26T01:46:10;3.83;;;2.70;;
56041;SDS011;48756;41.374;2.066;2023-02-26T01:48:49;5.20;;;2.78;;
56041;SDS011;48756;41.374;2.066;2023-02-26T01:51:18;4.05;;;2.47;;
56041;SDS011;48756;41.374;2.066;2023-02-26T01:53:44;4.97;;;2.97;;
56041;SDS011;48756;41.374;2.066;2023-02-26T01:56:16;4.93;;;2.90;;
56041;SDS011;48756;41.374;2.066;2023-02-26T01:58:43;5.85;;;3.67;;
56041;SDS011;48756;41.374;2.066;2023-02-26T02:01:13;4.32;;;3.15;;
56041;SDS011;48756;41.374;2.066;2023-02-26T02:03:39;4.75;;;3.30;;
56041;SDS011;48756;41.374;2.066;2023-02-26T02:06:08;6.35;;;4.50;;
56041;SDS011;48756;41.374;2.066;2023-02-26T02:08:39;4.68;;;2.10;;
56041;SDS011;48756;41.374;2.066;2023-02-26T02:11:06;5.43;;;2.45;;
56041;SDS011;48756;41.374;2.066;2023-02-26T02:13:39;3.72;;;2.63;;
56041;SDS011;48756;41.374;2.066;2023-02-26T02:31:01;3.90;;;2.47;;
56041;SDS011;48756;41.374;2.066;2023-02-26T02:33:49;2.10;;;1.90;;
56041;SDS011;48756;41.374;2.066;2023-02-26T02:36:29;7.05;;;2.97;;
56041;SDS011;48756;41.374;2.066;2023-02-26T02:39:04;3.85;;;2.67;;
56041;SDS011;48756;41.374;2.066;2023-02-26T02:41:41;8.52;;;3.83;;
56041;SDS011;48756;41.374;2.066;2023-02-26T02:44:13;5.03;;;3.28;;
56041;SDS011;48756;41.374;2.066;2023-02-26T02:46:42;4.15;;;2.60;;
56041;SDS011;48756;41.374;2.066;2023-02-26T02:49:15;5.60;;;3.67;;
56041;SDS011;48756;41.374;2.066;2023-02-26T02:52:28;6.68;;;3.78;;
56041;SDS011;48756;41.374;2.066;2023-02-26T02:54:45;2.67;;;1.85;;
56041;SDS011;48756;41.374;2.066;2023-02-26T02:57:20;3.35;;;1.80;;
56041;SDS011;48756;41.374;2.066;2023-02-26T03:00:01;3.85;;;2.38;;
56041;SDS011;48756;41.374;2.066;2023-02-26T03:02:39;3.22;;;2.53;;
56041;SDS011;48756;41.374;2.066;2023-02-26T03:05:24;2.95;;;2.20;;
56041;SDS011;48756;41.374;2.066;2023-02-26T03:10:27;2.20;;;1.63;;
56041;SDS011;48756;41.374;2.066;2023-02-26T03:12:53;2.13;;;1.13;;
56041;SDS011;48756;41.374;2.066;2023-02-26T03:15:21;4.17;;;2.00;;
56041;SDS011;48756;41.374;2.066;2023-02-26T03:20:34;2.90;;;1.90;;
56041;SDS011;48756;41.374;2.066;2023-02-26T03:25:46;5.40;;;2.70;;
56041;SDS011;48756;41.374;2.066;2023-02-26T03:31:19;4.32;;;2.38;;
56041;SDS011;48756;41.374;2.066;2023-02-26T03:34:05;3.85;;;2.10;;
56041;SDS011;48756;41.374;2.066;2023-02-26T03:36:39;4.75;;;2.22;;
56041;SDS011;48756;41.374;2.066;2023-02-26T03:39:17;1.70;;;1.38;;
56041;SDS011;48756;41.374;2.066;2023-02-26T03:45:03;4.82;;;1.67;;
56041;SDS011;48756;41.374;2.066;2023-02-26T03:47:33;2.45;;;1.60;;
56041;SDS011;48756;41.374;2.066;2023-02-26T03:52:31;1.88;;;1.33;;
56041;SDS011;48756;41.374;2.066;2023-02-26T03:55:02;2.35;;;1.35;;
56041;SDS011;48756;41.374;2.066;2023-02-26T03:57:38;2.20;;;1.27;;
56041;SDS011;48756;41.374;2.066;2023-02-26T04:00:04;2.90;;;1.30;;
56041;SDS011;48756;41.374;2.066;2023-02-26T04:05:17;2.03;;;1.35;;
56041;SDS011;48756;41.374;2.066;2023-02-26T04:07:45;2.15;;;1.95;;
56041;SDS011;48756;41.374;2.066;2023-02-26T04:10:17;3.42;;;2.15;;
56041;SDS011;48756;41.374;2.066;2023-02-26T04:12:45;2.33;;;1.77;;
56041;SDS011;48756;41.374;2.066;2023-02-26T04:17:37;3.65;;;1.35;;
56041;SDS011;48756;41.374;2.066;2023-02-26T04:20:03;1.97;;;1.10;;
56041;SDS011;48756;41.374;2.066;2023-02-26T04:22:34;3.42;;;1.63;;
56041;SDS011;48756;41.374;2.066;2023-02-26T04:25:00;2.15;;;1.42;;
56041;SDS011;48756;41.374;2.066;2023-02-26T04:27:26;3.07;;;1.33;;
56041;SDS011;48756;41.374;2.066;2023-02-26T04:29:51;3.53;;;1.83;;
56041;SDS011;48756;41.374;2.066;2023-02-26T04:32:17;1.60;;;1.13;;
56041;SDS011;48756;41.374;2.066;2023-02-26T04:34:42;1.80;;;1.17;;
56041;SDS011;48756;41.374;2.066;2023-02-26T04:37:08;2.77;;;1.67;;
56041;SDS011;48756;41.374;2.066;2023-02-26T04:39:34;2.55;;;1.83;;
56041;SDS011;48756;41.374;2.066;2023-02-26T04:42:00;4.85;;;1.48;;
56041;SDS011;48756;41.374;2.066;2023-02-26T04:44:28;4.00;;;2.72;;
56041;SDS011;48756;41.374;2.066;2023-02-26T04:46:54;3.33;;;1.23;;
56041;SDS011;48756;41.374;2.066;2023-02-26T04:49:20;3.83;;;2.25;;
56041;SDS011;48756;41.374;2.066;2023-02-26T04:51:45;4.50;;;1.87;;
56041;SDS011;48756;41.374;2.066;2023-02-26T04:54:11;2.20;;;1.13;;
56041;SDS011;48756;41.374;2.066;2023-02-26T04:56:36;2.10;;;1.13;;
56041;SDS011;48756;41.374;2.066;2023-02-26T04:59:05;4.57;;;2.60;;
56041;SDS011;48756;41.374;2.066;2023-02-26T05:01:31;3.13;;;0.82;;
56041;SDS011;48756;41.374;2.066;2023-02-26T05:03:56;1.27;;;1.15;;
56041;SDS011;48756;41.374;2.066;2023-02-26T05:06:22;1.98;;;1.77;;
56041;SDS011;48756;41.374;2.066;2023-02-26T05:08:48;3.23;;;1.57;;
56041;SDS011;48756;41.374;2.066;2023-02-26T05:11:13;1.73;;;1.00;;
56041;SDS011;48756;41.374;2.066;2023-02-26T05:13:39;1.30;;;1.05;;
56041;SDS011;48756;41.374;2.066;2023-02-26T05:16:07;2.23;;;1.13;;
56041;SDS011;48756;41.374;2.066;2023-02-26T05:18:33;3.75;;;2.15;;
56041;SDS011;48756;41.374;2.066;2023-02-26T05:20:59;3.23;;;1.67;;
56041;SDS011;48756;41.374;2.066;2023-02-26T05:23:24;3.00;;;1.70;;
56041;SDS011;48756;41.374;2.066;2023-02-26T05:25:50;2.88;;;1.88;;
56041;SDS011;48756;41.374;2.066;2023-02-26T05:28:22;3.80;;;2.22;;
56041;SDS011;48756;41.374;2.066;2023-02-26T05:30:49;3.72;;;2.40;;
56041;SDS011;48756;41.374;2.066;2023-02-26T05:33:14;3.42;;;2.58;;
56041;SDS011;48756;41.374;2.066;2023-02-26T05:35:40;5.38;;;3.70;;
56041;SDS011;48756;41.374;2.066;2023-02-26T05:38:05;4.23;;;2.60;;
56041;SDS011;48756;41.374;2.066;2023-02-26T05:40:31;7.25;;;4.03;;
56041;SDS011;48756;41.374;2.066;2023-02-26T05:42:56;6.47;;;3.23;;
56041;SDS011;48756;41.374;2.066;2023-02-26T05:45:22;4.20;;;2.63;;
56041;SDS011;48756;41.374;2.066;2023-02-26T05:47:47;3.23;;;2.80;;
56041;SDS011;48756;41.374;2.066;2023-02-26T05:50:13;6.93;;;3.10;;
56041;SDS011;48756;41.374;2.066;2023-02-26T05:52:38;3.70;;;2.43;;
56041;SDS011;48756;41.374;2.066;2023-02-26T05:55:04;2.93;;;2.20;;
56041;SDS011;48756;41.374;2.066;2023-02-26T05:57:30;2.28;;;1.58;;
56041;SDS011;48756;41.374;2.066;2023-02-26T05:59:55;5.20;;;2.73;;
56041;SDS011;48756;41.374;2.066;2023-02-26T06:02:21;6.20;;;2.90;;
56041;SDS011;48756;41.374;2.066;2023-02-26T06:04:47;8.10;;;2.75;;
56041;SDS011;48756;41.374;2.066;2023-02-26T06:07:12;5.43;;;3.33;;
56041;SDS011;48756;41.374;2.066;2023-02-26T06:09:38;6.22;;;3.40;;
56041;SDS011;48756;41.374;2.066;2023-02-26T06:12:04;5.50;;;3.33;;
56041;SDS011;48756;41.374;2.066;2023-02-26T06:14:31;3.53;;;3.10;;
56041;SDS011;48756;41.374;2.066;2023-02-26T06:16:57;5.50;;;2.60;;
56041;SDS011;48756;41.374;2.066;2023-02-26T06:19:22;4.45;;;3.13;;
56041;SDS011;48756;41.374;2.066;2023-02-26T06:21:48;4.70;;;2.73;;
56041;SDS011;48756;41.374;2.066;2023-02-26T06:24:13;3.50;;;3.07;;
56041;SDS011;48756;41.374;2.066;2023-02-26T06:26:39;8.50;;;3.77;;
56041;SDS011;48756;41.374;2.066;2023-02-26T06:29:04;4.93;;;2.83;;
56041;SDS011;48756;41.374;2.066;2023-02-26T06:31:30;4.63;;;3.03;;
56041;SDS011;48756;41.374;2.066;2023-02-26T06:33:55;4.13;;;3.00;;
56041;SDS011;48756;41.374;2.066;2023-02-26T06:36:21;4.10;;;2.83;;
56041;SDS011;48756;41.374;2.066;2023-02-26T06:38:46;5.60;;;3.07;;
56041;SDS011;48756;41.374;2.066;2023-02-26T06:41:12;3.63;;;2.47;;
56041;SDS011;48756;41.374;2.066;2023-02-26T06:43:38;4.53;;;2.73;;
56041;SDS011;48756;41.374;2.066;2023-02-26T06:46:03;2.17;;;1.92;;
56041;SDS011;48756;41.374;2.066;2023-02-26T06:48:29;3.37;;;2.87;;
56041;SDS011;48756;41.374;2.066;2023-02-26T06:50:54;4.30;;;2.03;;
56041;SDS011;48756;41.374;2.066;2023-02-26T06:53:20;8.30;;;2.97;;
56041;SDS011;48756;41.374;2.066;2023-02-26T06:55:46;4.50;;;2.27;;
56041;SDS011;48756;41.374;2.066;2023-02-26T06:58:14;5.28;;;2.42;;
56041;SDS011;48756;41.374;2.066;2023-02-26T07:00:39;5.00;;;2.97;;
56041;SDS011;48756;41.374;2.066;2023-02-26T07:03:05;3.85;;;2.53;;
56041;SDS011;48756;41.374;2.066;2023-02-26T07:05:34;4.97;;;3.28;;
56041;SDS011;48756;41.374;2.066;2023-02-26T07:07:59;2.53;;;2.33;;
56041;SDS011;48756;41.374;2.066;2023-02-26T07:10:25;3.67;;;2.27;;
56041;SDS011;48756;41.374;2.066;2023-02-26T07:12:50;2.37;;;2.17;;
56041;SDS011;48756;41.374;2.066;2023-02-26T07:15:16;4.10;;;1.87;;
56041;SDS011;48756;41.374;2.066;2023-02-26T07:17:41;2.53;;;1.53;;
56041;SDS011;48756;41.374;2.066;2023-02-26T07:20:08;3.30;;;2.38;;
56041;SDS011;48756;41.374;2.066;2023-02-26T07:22:36;4.35;;;3.08;;
56041;SDS011;48756;41.374;2.066;2023-02-26T07:25:05;2.63;;;1.90;;
56041;SDS011;48756;41.374;2.066;2023-02-26T07:27:31;2.95;;;2.75;;
56041;SDS011;48756;41.374;2.066;2023-02-26T07:30:00;3.80;;;2.22;;
56041;SDS011;48756;41.374;2.066;2023-02-26T07:32:27;2.17;;;1.58;;
56041;SDS011;48756;41.374;2.066;2023-02-26T07:34:52;3.15;;;2.38;;
56041;SDS011;48756;41.374;2.066;2023-02-26T07:37:18;2.20;;;1.27;;
56041;SDS011;48756;41.374;2.066;2023-02-26T07:39:44;3.95;;;2.70;;
56041;SDS011;48756;41.374;2.066;2023-02-26T07:42:09;3.40;;;2.67;;
56041;SDS011;48756;41.374;2.066;2023-02-26T07:44:35;2.03;;;1.50;;
56041;SDS011;48756;41.374;2.066;2023-02-26T07:47:01;4.00;;;3.43;;
56041;SDS011;48756;41.374;2.066;2023-02-26T07:49:26;4.97;;;2.20;;
56041;SDS011;48756;41.374;2.066;2023-02-26T07:51:52;3.13;;;1.67;;
56041;SDS011;48756;41.374;2.066;2023-02-26T07:54:17;4.68;;;2.15;;
56041;SDS011;48756;41.374;2.066;2023-02-26T07:56:43;2.93;;;1.73;;
56041;SDS011;48756;41.374;2.066;2023-02-26T07:59:09;5.17;;;2.00;;
56041;SDS011;48756;41.374;2.066;2023-02-26T08:01:35;4.22;;;3.00;;
56041;SDS011;48756;41.374;2.066;2023-02-26T08:04:01;2.35;;;1.80;;
56041;SDS011;48756;41.374;2.066;2023-02-26T08:06:27;3.78;;;1.60;;
56041;SDS011;48756;41.374;2.066;2023-02-26T08:08:53;1.98;;;1.48;;
56041;SDS011;48756;41.374;2.066;2023-02-26T08:11:19;2.30;;;1.93;;
56041;SDS011;48756;41.374;2.066;2023-02-26T08:13:44;4.63;;;3.42;;
56041;SDS011;48756;41.374;2.066;2023-02-26T08:16:10;4.30;;;2.22;;
56041;SDS011;48756;41.374;2.066;2023-02-26T08:18:36;4.17;;;3.53;;
56041;SDS011;48756;41.374;2.066;2023-02-26T08:21:01;4.67;;;3.17;;
56041;SDS011;48756;41.374;2.066;2023-02-26T08:23:27;4.93;;;3.15;;
56041;SDS011;48756;41.374;2.066;2023-02-26T08:26:03;5.75;;;2.80;;
56041;SDS011;48756;41.374;2.066;2023-02-26T08:28:31;4.28;;;2.10;;
56041;SDS011;48756;41.374;2.066;2023-02-26T08:30:57;4.97;;;2.25;;
56041;SDS011;48756;41.374;2.066;2023-02-26T08:33:23;3.47;;;3.17;;
56041;SDS011;48756;41.374;2.066;2023-02-26T08:35:49;7.55;;;3.13;;
56041;SDS011;48756;41.374;2.066;2023-02-26T08:38:15;3.83;;;2.13;;
56041;SDS011;48756;41.374;2.066;2023-02-26T08:40:41;3.22;;;2.03;;
56041;SDS011;48756;41.374;2.066;2023-02-26T08:43:13;3.33;;;1.90;;
56041;SDS011;48756;41.374;2.066;2023-02-26T08:45:39;1.77;;;1.47;;
56041;SDS011;48756;41.374;2.066;2023-02-26T08:48:04;2.13;;;1.43;;
56041;SDS011;48756;41.374;2.066;2023-02-26T08:50:30;2.47;;;1.60;;
56041;SDS011;48756;41.374;2.066;2023-02-26T08:52:56;4.45;;;2.35;;
56041;SDS011;48756;41.374;2.066;2023-02-26T08:55:23;3.90;;;2.70;;
56041;SDS011;48756;41.374;2.066;2023-02-26T08:57:49;4.20;;;3.63;;
56041;SDS011;48756;41.374;2.066;2023-02-26T09:00:14;3.40;;;2.42;;
56041;SDS011;48756;41.374;2.066;2023-02-26T09:02:41;4.28;;;2.38;;
56041;SDS011;48756;41.374;2.066;2023-02-26T09:05:06;3.60;;;2.35;;
56041;SDS011;48756;41.374;2.066;2023-02-26T09:07:32;4.78;;;3.72;;
56041;SDS011;48756;41.374;2.066;2023-02-26T09:09:58;5.70;;;3.57;;
56041;SDS011;48756;41.374;2.066;2023-02-26T09:12:23;7.20;;;4.68;;
56041;SDS011;48756;41.374;2.066;2023-02-26T09:14:49;4.50;;;3.23;;
56041;SDS011;48756;41.374;2.066;2023-02-26T09:17:14;4.43;;;3.40;;
56041;SDS011;48756;41.374;2.066;2023-02-26T09:19:40;6.00;;;4.60;;
56041;SDS011;48756;41.374;2.066;2023-02-26T09:22:05;4.27;;;3.87;;
56041;SDS011;48756;41.374;2.066;2023-02-26T09:24:31;3.97;;;2.90;;
56041;SDS011;48756;41.374;2.066;2023-02-26T09:26:56;3.30;;;2.43;;
56041;SDS011;48756;41.374;2.066;2023-02-26T09:29:22;3.67;;;2.83;;
56041;SDS011;48756;41.374;2.066;2023-02-26T09:31:47;4.53;;;3.23;;
56041;SDS011;48756;41.374;2.066;2023-02-26T09:34:13;7.73;;;3.40;;
56041;SDS011;48756;41.374;2.066;2023-02-26T09:36:38;3.63;;;2.63;;
56041;SDS011;48756;41.374;2.066;2023-02-26T09:39:04;4.50;;;2.33;;
56041;SDS011;48756;41.374;2.066;2023-02-26T09:41:31;3.58;;;3.28;;
56041;SDS011;48756;41.374;2.066;2023-02-26T09:44:08;5.80;;;3.55;;
56041;SDS011;48756;41.374;2.066;2023-02-26T09:54:51;4.93;;;2.72;;
56041;SDS011;48756;41.374;2.066;2023-02-26T09:57:26;2.88;;;2.63;;
56041;SDS011;48756;41.374;2.066;2023-02-26T09:59:58;4.47;;;3.15;;
56041;SDS011;48756;41.374;2.066;2023-02-26T10:08:00;1.83;;;1.52;;
56041;SDS011;48756;41.374;2.066;2023-02-26T10:13:00;2.33;;;1.70;;
56041;SDS011;48756;41.374;2.066;2023-02-26T10:15:27;2.17;;;1.67;;
56041;SDS011;48756;41.374;2.066;2023-02-26T10:18:03;2.92;;;2.47;;
56041;SDS011;48756;41.374;2.066;2023-02-26T10:25:48;3.78;;;2.53;;
56041;SDS011;48756;41.374;2.066;2023-02-26T10:42:24;2.95;;;2.60;;
56041;SDS011;48756;41.374;2.066;2023-02-26T10:45:08;4.07;;;2.47;;
56041;SDS011;48756;41.374;2.066;2023-02-26T10:50:29;4.47;;;2.60;;
56041;SDS011;48756;41.374;2.066;2023-02-26T10:52:55;4.13;;;2.53;;
56041;SDS011;48756;41.374;2.066;2023-02-26T10:55:31;3.55;;;2.00;;
56041;SDS011;48756;41.374;2.066;2023-02-26T10:58:03;4.38;;;2.65;;
56041;SDS011;48756;41.374;2.066;2023-02-26T11:00:39;3.38;;;2.30;;
56041;SDS011;48756;41.374;2.066;2023-02-26T11:03:06;3.28;;;2.22;;
56041;SDS011;48756;41.374;2.066;2023-02-26T11:05:37;3.00;;;1.65;;
56041;SDS011;48756;41.374;2.066;2023-02-26T11:08:10;3.28;;;2.22;;
56041;SDS011;48756;41.374;2.066;2023-02-26T11:10:49;3.67;;;2.40;;
56041;SDS011;48756;41.374;2.066;2023-02-26T11:13:23;2.63;;;1.80;;
56041;SDS011;48756;41.374;2.066;2023-02-26T11:15:51;3.70;;;2.15;;
56041;SDS011;48756;41.374;2.066;2023-02-26T11:18:41;4.00;;;2.58;;
56041;SDS011;48756;41.374;2.066;2023-02-26T11:21:21;2.42;;;1.30;;
56041;SDS011;48756;41.374;2.066;2023-02-26T11:23:56;4.60;;;1.83;;
56041;SDS011;48756;41.374;2.066;2023-02-26T11:26:26;3.75;;;2.05;;
56041;SDS011;48756;41.374;2.066;2023-02-26T11:28:56;2.30;;;1.48;;
56041;SDS011;48756;41.374;2.066;2023-02-26T11:34:07;3.45;;;1.40;;
56041;SDS011;48756;41.374;2.066;2023-02-26T11:36:37;1.90;;;1.27;;
56041;SDS011;48756;41.374;2.066;2023-02-26T11:41:40;2.75;;;1.80;;
56041;SDS011;48756;41.374;2.066;2023-02-26T11:46:38;1.73;;;1.38;;
56041;SDS011;48756;41.374;2.066;2023-02-26T11:49:09;1.58;;;1.35;;
56041;SDS011;48756;41.374;2.066;2023-02-26T11:51:38;1.80;;;1.50;;
56041;SDS011;48756;41.374;2.066;2023-02-26T11:54:18;2.25;;;1.75;;
56041;SDS011;48756;41.374;2.066;2023-02-26T11:56:46;2.33;;;1.38;;
56041;SDS011;48756;41.374;2.066;2023-02-26T11:59:20;3.35;;;2.10;;
56041;SDS011;48756;41.374;2.066;2023-02-26T12:01:47;3.63;;;2.42;;
56041;SDS011;48756;41.374;2.066;2023-02-26T12:04:18;3.60;;;2.17;;
56041;SDS011;48756;41.374;2.066;2023-02-26T12:06:46;2.65;;;1.73;;
56041;SDS011;48756;41.374;2.066;2023-02-26T12:09:14;2.72;;;1.58;;
56041;SDS011;48756;41.374;2.066;2023-02-26T12:17:32;2.70;;;2.03;;
56041;SDS011;48756;41.374;2.066;2023-02-26T12:25:54;1.87;;;1.23;;
56041;SDS011;48756;41.374;2.066;2023-02-26T12:28:41;5.30;;;1.73;;
56041;SDS011;48756;41.374;2.066;2023-02-26T12:37:06;2.05;;;0.95;;
56041;SDS011;48756;41.374;2.066;2023-02-26T12:39:54;1.77;;;1.42;;
56041;SDS011;48756;41.374;2.066;2023-02-26T12:42:45;3.47;;;1.92;;
56041;SDS011;48756;41.374;2.066;2023-02-26T12:50:45;2.67;;;2.10;;
56041;SDS011;48756;41.374;2.066;2023-02-26T12:53:40;2.85;;;1.70;;
56041;SDS011;48756;41.374;2.066;2023-02-26T13:21:18;8.10;;;2.38;;
56041;SDS011;48756;41.374;2.066;2023-02-26T13:23:54;2.55;;;2.10;;
56041;SDS011;48756;41.374;2.066;2023-02-26T13:26:24;3.28;;;2.03;;
56041;SDS011;48756;41.374;2.066;2023-02-26T13:34:20;2.38;;;1.90;;
56041;SDS011;48756;41.374;2.066;2023-02-26T13:36:57;3.75;;;2.92;;
56041;SDS011;48756;41.374;2.066;2023-02-26T13:39:37;3.42;;;2.22;;
56041;SDS011;48756;41.374;2.066;2023-02-26T13:42:19;3.80;;;2.88;;
56041;SDS011;48756;41.374;2.066;2023-02-26T13:47:36;4.15;;;1.77;;
56041;SDS011;48756;41.374;2.066;2023-02-26T13:52:54;2.67;;;1.52;;
56041;SDS011;48756;41.374;2.066;2023-02-26T13:55:46;3.20;;;2.67;;
56041;SDS011;48756;41.374;2.066;2023-02-26T14:00:56;3.75;;;2.33;;
56041;SDS011;48756;41.374;2.066;2023-02-26T14:05:52;1.83;;;1.48;;
56041;SDS011;48756;41.374;2.066;2023-02-26T14:14:13;3.25;;;1.60;;
56041;SDS011;48756;41.374;2.066;2023-02-26T14:16:43;4.00;;;1.60;;
56041;SDS011;48756;41.374;2.066;2023-02-26T14:27:38;3.00;;;1.60;;
56041;SDS011;48756;41.374;2.066;2023-02-26T14:35:22;3.80;;;2.10;;
56041;SDS011;48756;41.374;2.066;2023-02-26T14:40:38;3.10;;;2.35;;
56041;SDS011;48756;41.374;2.066;2023-02-26T14:43:09;3.78;;;1.77;;
56041;SDS011;48756;41.374;2.066;2023-02-26T14:45:41;3.35;;;3.05;;
56041;SDS011;48756;41.374;2.066;2023-02-26T14:48:13;2.33;;;1.75;;
56041;SDS011;48756;41.374;2.066;2023-02-26T14:56:26;1.80;;;1.33;;
56041;SDS011;48756;41.374;2.066;2023-02-26T15:04:22;2.83;;;1.75;;
56041;SDS011;48756;41.374;2.066;2023-02-26T15:15:54;2.83;;;2.10;;
56041;SDS011;48756;41.374;2.066;2023-02-26T15:18:45;2.55;;;2.15;;
56041;SDS011;48756;41.374;2.066;2023-02-26T15:24:14;2.13;;;1.30;;
56041;SDS011;48756;41.374;2.066;2023-02-26T15:26:48;1.73;;;1.63;;
56041;SDS011;48756;41.374;2.066;2023-02-26T15:29:16;1.88;;;1.63;;
56041;SDS011;48756;41.374;2.066;2023-02-26T15:31:53;2.70;;;2.15;;
56041;SDS011;48756;41.374;2.066;2023-02-26T15:34:25;2.85;;;1.88;;
56041;SDS011;48756;41.374;2.066;2023-02-26T15:39:18;4.50;;;3.33;;
56041;SDS011;48756;41.374;2.066;2023-02-26T15:41:47;3.22;;;1.90;;
56041;SDS011;48756;41.374;2.066;2023-02-26T15:44:18;2.22;;;2.03;;
56041;SDS011;48756;41.374;2.066;2023-02-26T15:46:55;3.30;;;2.55;;
56041;SDS011;48756;41.374;2.066;2023-02-26T15:49:29;2.30;;;1.70;;
56041;SDS011;48756;41.374;2.066;2023-02-26T15:51:58;4.35;;;2.08;;
56041;SDS011;48756;41.374;2.066;2023-02-26T15:54:29;3.40;;;1.95;;
56041;SDS011;48756;41.374;2.066;2023-02-26T15:57:01;2.40;;;2.10;;
56041;SDS011;48756;41.374;2.066;2023-02-26T15:59:28;2.83;;;2.25;;
56041;SDS011;48756;41.374;2.066;2023-02-26T16:01:55;2.33;;;2.03;;
56041;SDS011;48756;41.374;2.066;2023-02-26T16:04:21;2.88;;;1.65;;
56041;SDS011;48756;41.374;2.066;2023-02-26T16:09:35;3.00;;;2.07;;
56041;SDS011;48756;41.374;2.066;2023-02-26T16:12:07;2.45;;;1.77;;
56041;SDS011;48756;41.374;2.066;2023-02-26T16:14:40;3.45;;;1.83;;
56041;SDS011;48756;41.374;2.066;2023-02-26T16:17:13;3.28;;;1.77;;
56041;SDS011;48756;41.374;2.066;2023-02-26T16:19:47;1.92;;;1.55;;
56041;SDS011;48756;41.374;2.066;2023-02-26T16:24:42;2.13;;;1.80;;
56041;SDS011;48756;41.374;2.066;2023-02-26T16:27:11;3.45;;;2.80;;
56041;SDS011;48756;41.374;2.066;2023-02-26T16:29:39;2.03;;;1.67;;
56041;SDS011;48756;41.374;2.066;2023-02-26T16:32:13;5.20;;;2.67;;
56041;SDS011;48756;41.374;2.066;2023-02-26T16:34:41;2.17;;;2.00;;
56041;SDS011;48756;41.374;2.066;2023-02-26T16:39:50;3.88;;;2.20;;
56041;SDS011;48756;41.374;2.066;2023-02-26T16:42:21;2.67;;;1.92;;
56041;SDS011;48756;41.374;2.066;2023-02-26T16:45:02;4.97;;;2.53;;
56041;SDS011;48756;41.374;2.066;2023-02-26T16:47:42;2.33;;;1.83;;
56041;SDS011;48756;41.374;2.066;2023-02-26T16:50:22;2.33;;;2.10;;
56041;SDS011;48756;41.374;2.066;2023-02-26T16:52:53;2.45;;;1.58;;
56041;SDS011;48756;41.374;2.066;2023-02-26T16:55:26;2.88;;;1.85;;
56041;SDS011;48756;41.374;2.066;2023-02-26T16:57:54;2.83;;;2.25;;
56041;SDS011;48756;41.374;2.066;2023-02-26T17:00:22;2.47;;;2.00;;
56041;SDS011;48756;41.374;2.066;2023-02-26T17:02:56;2.63;;;2.17;;
56041;SDS011;48756;41.374;2.066;2023-02-26T17:05:29;4.32;;;1.98;;
56041;SDS011;48756;41.374;2.066;2023-02-26T17:10:39;5.82;;;2.35;;
56041;SDS011;48756;41.374;2.066;2023-02-26T17:13:16;4.10;;;3.47;;
56041;SDS011;48756;41.374;2.066;2023-02-26T17:15:44;3.35;;;3.05;;
56041;SDS011;48756;41.374;2.066;2023-02-26T17:18:13;2.97;;;2.20;;
56041;SDS011;48756;41.374;2.066;2023-02-26T17:20:39;2.95;;;2.17;;
56041;SDS011;48756;41.374;2.066;2023-02-26T17:23:05;2.15;;;1.77;;
56041;SDS011;48756;41.374;2.066;2023-02-26T17:25:34;2.10;;;1.90;;
56041;SDS011;48756;41.374;2.066;2023-02-26T17:28:02;2.33;;;1.77;;
56041;SDS011;48756;41.374;2.066;2023-02-26T17:30:28;2.33;;;1.60;;
56041;SDS011;48756;41.374;2.066;2023-02-26T17:32:57;2.17;;;1.98;;
56041;SDS011;48756;41.374;2.066;2023-02-26T17:35:24;2.83;;;2.47;;
56041;SDS011;48756;41.374;2.066;2023-02-26T17:37:50;3.25;;;2.53;;
56041;SDS011;48756;41.374;2.066;2023-02-26T17:40:21;5.70;;;1.77;;
56041;SDS011;48756;41.374;2.066;2023-02-26T17:42:55;2.67;;;1.67;;
56041;SDS011;48756;41.374;2.066;2023-02-26T17:45:21;2.97;;;2.10;;
56041;SDS011;48756;41.374;2.066;2023-02-26T17:47:46;4.28;;;2.47;;
56041;SDS011;48756;41.374;2.066;2023-02-26T17:50:39;4.40;;;1.92;;
56041;SDS011;48756;41.374;2.066;2023-02-26T17:53:19;2.70;;;2.13;;
56041;SDS011;48756;41.374;2.066;2023-02-26T17:55:47;2.33;;;2.03;;
56041;SDS011;48756;41.374;2.066;2023-02-26T17:58:18;2.42;;;1.83;;
56041;SDS011;48756;41.374;2.066;2023-02-26T18:00:51;1.83;;;1.48;;
56041;SDS011;48756;41.374;2.066;2023-02-26T18:03:17;2.22;;;2.03;;
56041;SDS011;48756;41.374;2.066;2023-02-26T18:05:44;3.72;;;1.85;;
56041;SDS011;48756;41.374;2.066;2023-02-26T18:10:44;3.90;;;3.00;;
56041;SDS011;48756;41.374;2.066;2023-02-26T18:13:10;3.20;;;2.43;;
56041;SDS011;48756;41.374;2.066;2023-02-26T18:15:35;2.90;;;2.37;;
56041;SDS011;48756;41.374;2.066;2023-02-26T18:18:01;4.20;;;1.70;;
56041;SDS011;48756;41.374;2.066;2023-02-26T18:20:26;4.00;;;1.70;;
56041;SDS011;48756;41.374;2.066;2023-02-26T18:22:53;5.07;;;1.90;;
56041;SDS011;48756;41.374;2.066;2023-02-26T18:25:20;2.27;;;2.07;;
56041;SDS011;48756;41.374;2.066;2023-02-26T18:27:47;2.40;;;1.77;;
56041;SDS011;48756;41.374;2.066;2023-02-26T18:30:22;2.55;;;1.48;;
56041;SDS011;48756;41.374;2.066;2023-02-26T18:32:52;4.55;;;2.08;;
56041;SDS011;48756;41.374;2.066;2023-02-26T18:35:18;2.05;;;1.45;;
56041;SDS011;48756;41.374;2.066;2023-02-26T18:37:44;3.00;;;1.58;;
56041;SDS011;48756;41.374;2.066;2023-02-26T18:40:15;3.97;;;2.00;;
56041;SDS011;48756;41.374;2.066;2023-02-26T18:42:42;2.40;;;2.20;;
56041;SDS011;48756;41.374;2.066;2023-02-26T18:45:08;2.65;;;1.58;;
56041;SDS011;48756;41.374;2.066;2023-02-26T18:47:35;2.80;;;1.35;;
56041;SDS011;48756;41.374;2.066;2023-02-26T18:50:01;4.90;;;1.50;;
56041;SDS011;48756;41.374;2.066;2023-02-26T18:52:27;1.65;;;1.30;;
56041;SDS011;48756;41.374;2.066;2023-02-26T18:54:53;4.72;;;0.90;;